sensor_id;sensor_type;location;lat;lon;timestamp;P1;durP1;ratioP1;P2;durP2;ratioP2
12302;SDS011;6214;48.012;7.862;2024-01-11T00:00:38;11.93;;;8.73;;
12302;SDS011;6214;48.012;7.862;2024-01-11T00:03:05;14.07;;;10.10;;
12302;SDS011;6214;48.012;7.862;2024-01-11T00:05:32;13.00;;;9.50;;
12302;SDS011;6214;48.012;7.862;2024-01-11T00:07:59;13.90;;;10.35;;
12302;SDS011;6214;48.012;7.862;2024-01-11T00:10:26;12.80;;;9.30;;
12302;SDS011;6214;48.012;7.862;2024-01-11T00:12:53;13.75;;;9.88;;
12302;SDS011;6214;48.012;7.862;2024-01-11T00:15:20;11.93;;;8.45;;
12302;SDS011;6214;48.012;7.862;2024-01-11T00:17:47;11.45;;;7.60;;
12302;SDS011;6214;48.012;7.862;2024-01-11T00:20:14;10.13;;;7.00;;
12302;SDS011;6214;48.012;7.862;2024-01-11T00:22:41;10.68;;;7.05;;
12302;SDS011;6214;48.012;7.862;2024-01-11T00:25:07;11.43;;;7.63;;
12302;SDS011;6214;48.012;7.862;2024-01-11T00:27:34;13.10;;;8.90;;
12302;SDS011;6214;48.012;7.862;2024-01-11T00:30:01;12.35;;;9.60;;
12302;SDS011;6214;48.012;7.862;2024-01-11T00:32:28;11.70;;;8.30;;
12302;SDS011;6214;48.012;7.862;2024-01-11T00:34:55;12.35;;;8.70;;
12302;SDS011;6214;48.012;7.862;2024-01-11T00:37:22;14.85;;;10.55;;
12302;SDS011;6214;48.012;7.862;2024-01-11T00:39:49;13.55;;;10.25;;
12302;SDS011;6214;48.012;7.862;2024-01-11T00:42:15;14.15;;;10.10;;
12302;SDS011;6214;48.012;7.862;2024-01-11T00:44:42;12.40;;;8.30;;
12302;SDS011;6214;48.012;7.862;2024-01-11T00:47:11;12.93;;;9.30;;
12302;SDS011;6214;48.012;7.862;2024-01-11T00:49:38;12.00;;;8.73;;
12302;SDS011;6214;48.012;7.862;2024-01-11T00:52:05;12.80;;;8.75;;
12302;SDS011;6214;48.012;7.862;2024-01-11T00:54:32;14.60;;;9.80;;
12302;SDS011;6214;48.012;7.862;2024-01-11T00:56:59;15.10;;;11.20;;
12302;SDS011;6214;48.012;7.862;2024-01-11T00:59:25;14.68;;;11.18;;
12302;SDS011;6214;48.012;7.862;2024-01-11T01:01:52;13.15;;;9.55;;
12302;SDS011;6214;48.012;7.862;2024-01-11T01:04:19;11.00;;;7.30;;
12302;SDS011;6214;48.012;7.862;2024-01-11T01:06:46;11.05;;;7.00;;
12302;SDS011;6214;48.012;7.862;2024-01-11T01:09:13;10.95;;;7.20;;
12302;SDS011;6214;48.012;7.862;2024-01-11T01:11:40;10.77;;;7.47;;
12302;SDS011;6214;48.012;7.862;2024-01-11T01:14:07;12.00;;;7.85;;
12302;SDS011;6214;48.012;7.862;2024-01-11T01:16:35;15.63;;;11.63;;
12302;SDS011;6214;48.012;7.862;2024-01-11T01:19:02;13.35;;;9.90;;
12302;SDS011;6214;48.012;7.862;2024-01-11T01:21:29;13.88;;;10.23;;
12302;SDS011;6214;48.012;7.862;2024-01-11T01:23:56;12.05;;;8.25;;
12302;SDS011;6214;48.012;7.862;2024-01-11T01:26:24;10.90;;;7.40;;
12302;SDS011;6214;48.012;7.862;2024-01-11T01:28:51;11.27;;;7.60;;
12302;SDS011;6214;48.012;7.862;2024-01-11T01:31:18;10.63;;;7.22;;
12302;SDS011;6214;48.012;7.862;2024-01-11T01:33:46;10.48;;;7.00;;
12302;SDS011;6214;48.012;7.862;2024-01-11T01:36:13;9.50;;;6.28;;
12302;SDS011;6214;48.012;7.862;2024-01-11T01:38:39;13.10;;;8.68;;
12302;SDS011;6214;48.012;7.862;2024-01-11T01:41:06;12.93;;;8.80;;
12302;SDS011;6214;48.012;7.862;2024-01-11T01:43:34;10.35;;;7.03;;
12302;SDS011;6214;48.012;7.862;2024-01-11T01:46:00;13.32;;;9.40;;
12302;SDS011;6214;48.012;7.862;2024-01-11T01:48:28;11.82;;;7.80;;
12302;SDS011;6214;48.012;7.862;2024-01-11T01:50:55;10.57;;;6.72;;
12302;SDS011;6214;48.012;7.862;2024-01-11T01:53:22;11.40;;;7.60;;
12302;SDS011;6214;48.012;7.862;2024-01-11T01:55:54;10.50;;;6.53;;
12302;SDS011;6214;48.012;7.862;2024-01-11T01:58:22;10.38;;;6.60;;
12302;SDS011;6214;48.012;7.862;2024-01-11T02:00:49;11.48;;;7.78;;
12302;SDS011;6214;48.012;7.862;2024-01-11T02:03:18;13.85;;;9.88;;
12302;SDS011;6214;48.012;7.862;2024-01-11T02:05:45;13.63;;;9.98;;
12302;SDS011;6214;48.012;7.862;2024-01-11T02:08:15;15.35;;;12.00;;
12302;SDS011;6214;48.012;7.862;2024-01-11T02:10:44;13.65;;;10.10;;
12302;SDS011;6214;48.012;7.862;2024-01-11T02:13:12;13.25;;;9.85;;
12302;SDS011;6214;48.012;7.862;2024-01-11T02:15:39;13.25;;;10.40;;
12302;SDS011;6214;48.012;7.862;2024-01-11T02:18:06;13.45;;;9.48;;
12302;SDS011;6214;48.012;7.862;2024-01-11T02:20:34;13.80;;;10.33;;
12302;SDS011;6214;48.012;7.862;2024-01-11T02:23:03;15.70;;;12.20;;
12302;SDS011;6214;48.012;7.862;2024-01-11T02:25:32;18.80;;;14.40;;
12302;SDS011;6214;48.012;7.862;2024-01-11T02:27:59;18.55;;;13.45;;
12302;SDS011;6214;48.012;7.862;2024-01-11T02:30:26;17.70;;;13.35;;
12302;SDS011;6214;48.012;7.862;2024-01-11T02:35:51;16.58;;;12.77;;
12302;SDS011;6214;48.012;7.862;2024-01-11T02:38:18;14.37;;;10.83;;
12302;SDS011;6214;48.012;7.862;2024-01-11T02:40:45;15.85;;;12.15;;
12302;SDS011;6214;48.012;7.862;2024-01-11T02:43:12;14.52;;;10.52;;
12302;SDS011;6214;48.012;7.862;2024-01-11T02:45:39;16.08;;;11.60;;
12302;SDS011;6214;48.012;7.862;2024-01-11T02:48:06;13.50;;;10.13;;
12302;SDS011;6214;48.012;7.862;2024-01-11T02:50:33;12.57;;;9.18;;
12302;SDS011;6214;48.012;7.862;2024-01-11T02:53:00;13.90;;;10.23;;
12302;SDS011;6214;48.012;7.862;2024-01-11T02:55:27;15.70;;;11.60;;
12302;SDS011;6214;48.012;7.862;2024-01-11T02:57:54;13.10;;;9.80;;
12302;SDS011;6214;48.012;7.862;2024-01-11T03:00:20;11.40;;;8.40;;
12302;SDS011;6214;48.012;7.862;2024-01-11T03:02:47;12.95;;;9.13;;
12302;SDS011;6214;48.012;7.862;2024-01-11T03:05:14;12.65;;;8.80;;
12302;SDS011;6214;48.012;7.862;2024-01-11T03:07:41;12.18;;;8.50;;
12302;SDS011;6214;48.012;7.862;2024-01-11T03:10:07;12.00;;;9.10;;
12302;SDS011;6214;48.012;7.862;2024-01-11T03:12:34;12.48;;;8.93;;
12302;SDS011;6214;48.012;7.862;2024-01-11T03:15:01;13.27;;;9.10;;
12302;SDS011;6214;48.012;7.862;2024-01-11T03:17:28;13.23;;;9.20;;
12302;SDS011;6214;48.012;7.862;2024-01-11T03:19:55;11.93;;;7.85;;
12302;SDS011;6214;48.012;7.862;2024-01-11T03:22:22;13.18;;;8.50;;
12302;SDS011;6214;48.012;7.862;2024-01-11T03:24:49;13.48;;;9.85;;
12302;SDS011;6214;48.012;7.862;2024-01-11T03:27:16;13.70;;;10.20;;
12302;SDS011;6214;48.012;7.862;2024-01-11T03:29:43;11.70;;;8.20;;
12302;SDS011;6214;48.012;7.862;2024-01-11T03:32:09;13.25;;;9.13;;
12302;SDS011;6214;48.012;7.862;2024-01-11T03:34:40;10.88;;;7.60;;
12302;SDS011;6214;48.012;7.862;2024-01-11T03:37:06;11.52;;;7.93;;
12302;SDS011;6214;48.012;7.862;2024-01-11T03:39:34;12.27;;;8.45;;
12302;SDS011;6214;48.012;7.862;2024-01-11T03:42:01;16.73;;;12.23;;
12302;SDS011;6214;48.012;7.862;2024-01-11T03:44:30;14.95;;;11.10;;
12302;SDS011;6214;48.012;7.862;2024-01-11T03:46:57;13.27;;;9.80;;
12302;SDS011;6214;48.012;7.862;2024-01-11T03:49:24;19.98;;;14.40;;
12302;SDS011;6214;48.012;7.862;2024-01-11T03:51:51;16.88;;;12.55;;
12302;SDS011;6214;48.012;7.862;2024-01-11T03:54:17;14.75;;;10.75;;
12302;SDS011;6214;48.012;7.862;2024-01-11T03:56:44;12.73;;;8.60;;
12302;SDS011;6214;48.012;7.862;2024-01-11T03:59:11;13.65;;;9.60;;
12302;SDS011;6214;48.012;7.862;2024-01-11T04:01:39;13.10;;;9.40;;
12302;SDS011;6214;48.012;7.862;2024-01-11T04:04:08;12.48;;;8.40;;
12302;SDS011;6214;48.012;7.862;2024-01-11T04:06:36;12.32;;;8.75;;
12302;SDS011;6214;48.012;7.862;2024-01-11T04:09:03;13.13;;;8.77;;
12302;SDS011;6214;48.012;7.862;2024-01-11T04:11:30;11.32;;;7.70;;
12302;SDS011;6214;48.012;7.862;2024-01-11T04:13:57;12.27;;;8.15;;
12302;SDS011;6214;48.012;7.862;2024-01-11T04:16:24;12.40;;;8.50;;
12302;SDS011;6214;48.012;7.862;2024-01-11T04:18:50;11.63;;;8.10;;
12302;SDS011;6214;48.012;7.862;2024-01-11T04:21:24;11.05;;;7.55;;
12302;SDS011;6214;48.012;7.862;2024-01-11T04:23:56;10.50;;;7.13;;
12302;SDS011;6214;48.012;7.862;2024-01-11T04:26:23;11.02;;;7.45;;
12302;SDS011;6214;48.012;7.862;2024-01-11T04:28:51;11.05;;;7.93;;
12302;SDS011;6214;48.012;7.862;2024-01-11T04:31:19;11.60;;;8.00;;
12302;SDS011;6214;48.012;7.862;2024-01-11T04:33:46;12.20;;;8.82;;
12302;SDS011;6214;48.012;7.862;2024-01-11T04:36:13;12.82;;;8.48;;
12302;SDS011;6214;48.012;7.862;2024-01-11T04:38:40;11.80;;;8.07;;
12302;SDS011;6214;48.012;7.862;2024-01-11T04:41:07;12.20;;;9.10;;
12302;SDS011;6214;48.012;7.862;2024-01-11T04:43:38;12.55;;;8.38;;
12302;SDS011;6214;48.012;7.862;2024-01-11T04:46:15;12.07;;;8.20;;
12302;SDS011;6214;48.012;7.862;2024-01-11T04:48:46;11.80;;;8.13;;
12302;SDS011;6214;48.012;7.862;2024-01-11T04:51:14;11.07;;;7.60;;
12302;SDS011;6214;48.012;7.862;2024-01-11T04:53:42;11.00;;;7.65;;
12302;SDS011;6214;48.012;7.862;2024-01-11T04:56:10;12.13;;;8.23;;
12302;SDS011;6214;48.012;7.862;2024-01-11T04:58:40;13.55;;;10.10;;
12302;SDS011;6214;48.012;7.862;2024-01-11T05:01:12;16.83;;;12.35;;
12302;SDS011;6214;48.012;7.862;2024-01-11T05:03:43;13.25;;;9.25;;
12302;SDS011;6214;48.012;7.862;2024-01-11T05:06:20;16.40;;;11.68;;
12302;SDS011;6214;48.012;7.862;2024-01-11T05:08:49;15.15;;;11.85;;
12302;SDS011;6214;48.012;7.862;2024-01-11T05:11:22;18.50;;;14.30;;
12302;SDS011;6214;48.012;7.862;2024-01-11T05:13:54;18.20;;;13.00;;
12302;SDS011;6214;48.012;7.862;2024-01-11T05:16:22;16.05;;;12.15;;
12302;SDS011;6214;48.012;7.862;2024-01-11T05:18:50;17.33;;;14.10;;
12302;SDS011;6214;48.012;7.862;2024-01-11T05:21:18;14.88;;;10.88;;
12302;SDS011;6214;48.012;7.862;2024-01-11T05:23:45;14.95;;;11.15;;
12302;SDS011;6214;48.012;7.862;2024-01-11T05:26:13;17.65;;;13.20;;
12302;SDS011;6214;48.012;7.862;2024-01-11T05:28:41;17.20;;;12.60;;
12302;SDS011;6214;48.012;7.862;2024-01-11T05:31:12;14.88;;;10.60;;
12302;SDS011;6214;48.012;7.862;2024-01-11T05:33:41;13.68;;;9.88;;
12302;SDS011;6214;48.012;7.862;2024-01-11T05:36:09;13.27;;;9.73;;
12302;SDS011;6214;48.012;7.862;2024-01-11T05:38:35;13.70;;;9.50;;
12302;SDS011;6214;48.012;7.862;2024-01-11T05:41:04;13.60;;;9.90;;
12302;SDS011;6214;48.012;7.862;2024-01-11T05:43:31;14.38;;;10.40;;
12302;SDS011;6214;48.012;7.862;2024-01-11T05:45:57;12.10;;;8.50;;
12302;SDS011;6214;48.012;7.862;2024-01-11T05:48:24;13.82;;;9.60;;
12302;SDS011;6214;48.012;7.862;2024-01-11T05:50:51;13.25;;;9.15;;
12302;SDS011;6214;48.012;7.862;2024-01-11T05:53:18;12.35;;;8.57;;
12302;SDS011;6214;48.012;7.862;2024-01-11T05:55:47;13.52;;;9.85;;
12302;SDS011;6214;48.012;7.862;2024-01-11T05:58:15;13.73;;;10.00;;
12302;SDS011;6214;48.012;7.862;2024-01-11T06:00:42;12.18;;;8.70;;
12302;SDS011;6214;48.012;7.862;2024-01-11T06:03:09;13.03;;;8.83;;
12302;SDS011;6214;48.012;7.862;2024-01-11T06:05:38;15.35;;;11.70;;
12302;SDS011;6214;48.012;7.862;2024-01-11T06:08:05;15.60;;;10.75;;
12302;SDS011;6214;48.012;7.862;2024-01-11T06:10:33;12.07;;;8.75;;
12302;SDS011;6214;48.012;7.862;2024-01-11T06:13:00;14.13;;;10.20;;
12302;SDS011;6214;48.012;7.862;2024-01-11T06:15:26;14.87;;;10.83;;
12302;SDS011;6214;48.012;7.862;2024-01-11T06:17:53;13.27;;;9.38;;
12302;SDS011;6214;48.012;7.862;2024-01-11T06:20:20;13.90;;;10.30;;
12302;SDS011;6214;48.012;7.862;2024-01-11T06:22:47;16.30;;;12.30;;
12302;SDS011;6214;48.012;7.862;2024-01-11T06:25:14;17.52;;;13.60;;
12302;SDS011;6214;48.012;7.862;2024-01-11T06:27:41;19.30;;;14.45;;
12302;SDS011;6214;48.012;7.862;2024-01-11T06:30:10;18.30;;;13.35;;
12302;SDS011;6214;48.012;7.862;2024-01-11T06:32:37;13.23;;;9.88;;
12302;SDS011;6214;48.012;7.862;2024-01-11T06:35:04;12.70;;;8.88;;
12302;SDS011;6214;48.012;7.862;2024-01-11T06:37:31;13.50;;;10.37;;
12302;SDS011;6214;48.012;7.862;2024-01-11T06:39:58;13.00;;;9.20;;
12302;SDS011;6214;48.012;7.862;2024-01-11T06:42:25;12.40;;;8.80;;
12302;SDS011;6214;48.012;7.862;2024-01-11T06:44:52;12.80;;;8.70;;
12302;SDS011;6214;48.012;7.862;2024-01-11T06:47:18;12.98;;;9.30;;
12302;SDS011;6214;48.012;7.862;2024-01-11T06:49:46;15.20;;;11.30;;
12302;SDS011;6214;48.012;7.862;2024-01-11T06:52:12;15.65;;;11.32;;
12302;SDS011;6214;48.012;7.862;2024-01-11T06:54:39;16.48;;;12.18;;
12302;SDS011;6214;48.012;7.862;2024-01-11T06:57:06;16.80;;;12.77;;
12302;SDS011;6214;48.012;7.862;2024-01-11T06:59:33;16.52;;;13.07;;
12302;SDS011;6214;48.012;7.862;2024-01-11T07:02:00;16.53;;;12.13;;
12302;SDS011;6214;48.012;7.862;2024-01-11T07:04:27;14.77;;;11.35;;
12302;SDS011;6214;48.012;7.862;2024-01-11T07:06:57;15.00;;;10.55;;
12302;SDS011;6214;48.012;7.862;2024-01-11T07:09:24;12.52;;;8.60;;
12302;SDS011;6214;48.012;7.862;2024-01-11T07:11:51;11.43;;;7.85;;
12302;SDS011;6214;48.012;7.862;2024-01-11T07:14:18;13.45;;;8.43;;
12302;SDS011;6214;48.012;7.862;2024-01-11T07:16:45;15.90;;;11.88;;
12302;SDS011;6214;48.012;7.862;2024-01-11T07:19:12;16.95;;;12.10;;
12302;SDS011;6214;48.012;7.862;2024-01-11T07:21:39;19.95;;;14.75;;
12302;SDS011;6214;48.012;7.862;2024-01-11T07:24:05;15.73;;;12.05;;
12302;SDS011;6214;48.012;7.862;2024-01-11T07:26:32;19.05;;;14.35;;
12302;SDS011;6214;48.012;7.862;2024-01-11T07:28:59;19.92;;;14.50;;
12302;SDS011;6214;48.012;7.862;2024-01-11T07:31:26;15.70;;;11.90;;
12302;SDS011;6214;48.012;7.862;2024-01-11T07:33:53;15.32;;;11.10;;
12302;SDS011;6214;48.012;7.862;2024-01-11T07:36:20;15.60;;;11.38;;
12302;SDS011;6214;48.012;7.862;2024-01-11T07:38:46;18.83;;;14.68;;
12302;SDS011;6214;48.012;7.862;2024-01-11T07:41:13;20.00;;;14.95;;
12302;SDS011;6214;48.012;7.862;2024-01-11T07:43:40;15.85;;;11.80;;
12302;SDS011;6214;48.012;7.862;2024-01-11T07:46:19;16.30;;;12.55;;
12302;SDS011;6214;48.012;7.862;2024-01-11T07:49:01;17.80;;;14.10;;
12302;SDS011;6214;48.012;7.862;2024-01-11T07:51:29;22.33;;;17.10;;
12302;SDS011;6214;48.012;7.862;2024-01-11T07:53:55;17.48;;;13.00;;
12302;SDS011;6214;48.012;7.862;2024-01-11T07:56:22;15.30;;;10.82;;
12302;SDS011;6214;48.012;7.862;2024-01-11T07:58:49;15.87;;;12.93;;
12302;SDS011;6214;48.012;7.862;2024-01-11T08:01:16;15.07;;;11.70;;
12302;SDS011;6214;48.012;7.862;2024-01-11T08:03:45;15.00;;;11.05;;
12302;SDS011;6214;48.012;7.862;2024-01-11T08:06:12;14.02;;;9.20;;
12302;SDS011;6214;48.012;7.862;2024-01-11T08:08:39;12.50;;;8.65;;
12302;SDS011;6214;48.012;7.862;2024-01-11T08:11:07;13.45;;;9.90;;
12302;SDS011;6214;48.012;7.862;2024-01-11T08:13:34;17.35;;;12.90;;
12302;SDS011;6214;48.012;7.862;2024-01-11T08:16:01;17.90;;;14.00;;
12302;SDS011;6214;48.012;7.862;2024-01-11T08:18:31;15.23;;;11.23;;
12302;SDS011;6214;48.012;7.862;2024-01-11T08:20:58;13.70;;;9.48;;
12302;SDS011;6214;48.012;7.862;2024-01-11T08:23:24;11.57;;;7.85;;
12302;SDS011;6214;48.012;7.862;2024-01-11T08:25:51;12.13;;;8.40;;
12302;SDS011;6214;48.012;7.862;2024-01-11T08:28:19;12.65;;;8.77;;
12302;SDS011;6214;48.012;7.862;2024-01-11T08:30:47;16.40;;;11.80;;
12302;SDS011;6214;48.012;7.862;2024-01-11T08:33:14;15.48;;;11.85;;
12302;SDS011;6214;48.012;7.862;2024-01-11T08:35:41;14.98;;;11.02;;
12302;SDS011;6214;48.012;7.862;2024-01-11T08:38:08;14.45;;;10.95;;
12302;SDS011;6214;48.012;7.862;2024-01-11T08:40:35;16.08;;;13.45;;
12302;SDS011;6214;48.012;7.862;2024-01-11T08:43:02;20.10;;;15.82;;
12302;SDS011;6214;48.012;7.862;2024-01-11T08:45:30;19.40;;;15.48;;
12302;SDS011;6214;48.012;7.862;2024-01-11T08:47:57;18.17;;;14.80;;
12302;SDS011;6214;48.012;7.862;2024-01-11T08:50:24;17.60;;;14.90;;
12302;SDS011;6214;48.012;7.862;2024-01-11T08:52:54;17.27;;;14.03;;
12302;SDS011;6214;48.012;7.862;2024-01-11T08:55:22;20.15;;;17.02;;
12302;SDS011;6214;48.012;7.862;2024-01-11T08:57:49;18.00;;;15.05;;
12302;SDS011;6214;48.012;7.862;2024-01-11T09:00:16;18.42;;;14.18;;
12302;SDS011;6214;48.012;7.862;2024-01-11T09:02:44;15.55;;;12.30;;
12302;SDS011;6214;48.012;7.862;2024-01-11T09:05:15;14.60;;;11.23;;
12302;SDS011;6214;48.012;7.862;2024-01-11T09:07:42;16.60;;;13.13;;
12302;SDS011;6214;48.012;7.862;2024-01-11T09:10:09;18.35;;;14.77;;
12302;SDS011;6214;48.012;7.862;2024-01-11T09:12:37;20.50;;;16.50;;
12302;SDS011;6214;48.012;7.862;2024-01-11T09:15:04;17.40;;;14.00;;
12302;SDS011;6214;48.012;7.862;2024-01-11T09:17:32;18.00;;;13.43;;
12302;SDS011;6214;48.012;7.862;2024-01-11T09:19:59;19.55;;;15.70;;
12302;SDS011;6214;48.012;7.862;2024-01-11T09:22:26;18.57;;;14.80;;
12302;SDS011;6214;48.012;7.862;2024-01-11T09:24:54;16.33;;;13.15;;
12302;SDS011;6214;48.012;7.862;2024-01-11T09:27:21;17.65;;;14.35;;
12302;SDS011;6214;48.012;7.862;2024-01-11T09:29:48;17.52;;;14.35;;
12302;SDS011;6214;48.012;7.862;2024-01-11T09:32:19;18.27;;;14.70;;
12302;SDS011;6214;48.012;7.862;2024-01-11T09:34:46;21.08;;;17.60;;
12302;SDS011;6214;48.012;7.862;2024-01-11T09:37:13;18.25;;;15.20;;
12302;SDS011;6214;48.012;7.862;2024-01-11T09:39:41;19.25;;;15.65;;
12302;SDS011;6214;48.012;7.862;2024-01-11T09:42:08;18.23;;;14.77;;
12302;SDS011;6214;48.012;7.862;2024-01-11T09:44:36;15.27;;;12.65;;
12302;SDS011;6214;48.012;7.862;2024-01-11T09:47:08;16.17;;;13.77;;
12302;SDS011;6214;48.012;7.862;2024-01-11T09:49:42;23.55;;;20.08;;
12302;SDS011;6214;48.012;7.862;2024-01-11T09:52:11;20.45;;;17.30;;
12302;SDS011;6214;48.012;7.862;2024-01-11T09:54:40;21.30;;;17.65;;
12302;SDS011;6214;48.012;7.862;2024-01-11T09:57:07;19.90;;;17.60;;
12302;SDS011;6214;48.012;7.862;2024-01-11T09:59:35;25.40;;;21.33;;
12302;SDS011;6214;48.012;7.862;2024-01-11T10:02:03;26.90;;;23.20;;
12302;SDS011;6214;48.012;7.862;2024-01-11T10:04:34;25.45;;;22.50;;
12302;SDS011;6214;48.012;7.862;2024-01-11T10:07:01;27.60;;;23.23;;
12302;SDS011;6214;48.012;7.862;2024-01-11T10:09:30;24.42;;;20.90;;
12302;SDS011;6214;48.012;7.862;2024-01-11T10:11:58;24.73;;;21.17;;
12302;SDS011;6214;48.012;7.862;2024-01-11T10:14:25;24.25;;;21.02;;
12302;SDS011;6214;48.012;7.862;2024-01-11T10:16:53;20.42;;;17.33;;
12302;SDS011;6214;48.012;7.862;2024-01-11T10:19:21;16.42;;;13.23;;
12302;SDS011;6214;48.012;7.862;2024-01-11T10:21:48;19.17;;;15.40;;
12302;SDS011;6214;48.012;7.862;2024-01-11T10:24:18;16.17;;;12.93;;
12302;SDS011;6214;48.012;7.862;2024-01-11T10:26:46;23.15;;;18.67;;
12302;SDS011;6214;48.012;7.862;2024-01-11T10:29:14;18.40;;;15.52;;
12302;SDS011;6214;48.012;7.862;2024-01-11T10:31:41;19.08;;;15.38;;
12302;SDS011;6214;48.012;7.862;2024-01-11T10:34:07;19.42;;;14.98;;
12302;SDS011;6214;48.012;7.862;2024-01-11T10:36:35;20.27;;;15.67;;
12302;SDS011;6214;48.012;7.862;2024-01-11T10:39:02;20.60;;;17.75;;
12302;SDS011;6214;48.012;7.862;2024-01-11T10:41:37;21.17;;;17.65;;
12302;SDS011;6214;48.012;7.862;2024-01-11T10:44:20;22.27;;;18.63;;
12302;SDS011;6214;48.012;7.862;2024-01-11T10:46:49;22.73;;;18.70;;
12302;SDS011;6214;48.012;7.862;2024-01-11T10:49:19;20.25;;;17.65;;
12302;SDS011;6214;48.012;7.862;2024-01-11T10:51:54;21.13;;;18.10;;
12302;SDS011;6214;48.012;7.862;2024-01-11T10:54:26;22.02;;;17.63;;
12302;SDS011;6214;48.012;7.862;2024-01-11T10:56:54;22.30;;;17.90;;
12302;SDS011;6214;48.012;7.862;2024-01-11T10:59:22;23.73;;;20.80;;
12302;SDS011;6214;48.012;7.862;2024-01-11T11:01:54;20.50;;;16.83;;
12302;SDS011;6214;48.012;7.862;2024-01-11T11:04:24;24.70;;;19.90;;
12302;SDS011;6214;48.012;7.862;2024-01-11T11:06:54;24.55;;;19.73;;
12302;SDS011;6214;48.012;7.862;2024-01-11T11:09:25;22.30;;;19.23;;
12302;SDS011;6214;48.012;7.862;2024-01-11T11:11:55;28.10;;;23.83;;
12302;SDS011;6214;48.012;7.862;2024-01-11T11:14:24;26.60;;;22.30;;
12302;SDS011;6214;48.012;7.862;2024-01-11T11:16:51;22.80;;;19.77;;
12302;SDS011;6214;48.012;7.862;2024-01-11T11:19:19;21.40;;;18.00;;
12302;SDS011;6214;48.012;7.862;2024-01-11T11:21:47;19.65;;;16.88;;
12302;SDS011;6214;48.012;7.862;2024-01-11T11:24:16;18.80;;;15.60;;
12302;SDS011;6214;48.012;7.862;2024-01-11T11:26:43;27.27;;;24.27;;
12302;SDS011;6214;48.012;7.862;2024-01-11T11:29:10;28.73;;;23.80;;
12302;SDS011;6214;48.012;7.862;2024-01-11T11:31:44;26.57;;;23.47;;
12302;SDS011;6214;48.012;7.862;2024-01-11T11:34:20;20.33;;;17.30;;
12302;SDS011;6214;48.012;7.862;2024-01-11T11:36:47;23.67;;;19.60;;
12302;SDS011;6214;48.012;7.862;2024-01-11T11:39:16;20.02;;;16.50;;
12302;SDS011;6214;48.012;7.862;2024-01-11T11:41:46;26.67;;;22.13;;
12302;SDS011;6214;48.012;7.862;2024-01-11T11:44:16;22.08;;;19.67;;
12302;SDS011;6214;48.012;7.862;2024-01-11T11:46:43;22.42;;;19.90;;
12302;SDS011;6214;48.012;7.862;2024-01-11T11:49:11;20.80;;;17.90;;
12302;SDS011;6214;48.012;7.862;2024-01-11T11:51:39;18.73;;;16.02;;
12302;SDS011;6214;48.012;7.862;2024-01-11T11:54:07;27.00;;;23.88;;
12302;SDS011;6214;48.012;7.862;2024-01-11T11:56:41;28.17;;;24.92;;
12302;SDS011;6214;48.012;7.862;2024-01-11T11:59:08;25.50;;;22.38;;
12302;SDS011;6214;48.012;7.862;2024-01-11T12:01:35;24.60;;;21.40;;
12302;SDS011;6214;48.012;7.862;2024-01-11T12:04:04;23.90;;;21.23;;
12302;SDS011;6214;48.012;7.862;2024-01-11T12:06:34;21.25;;;17.75;;
12302;SDS011;6214;48.012;7.862;2024-01-11T12:09:00;21.90;;;19.60;;
12302;SDS011;6214;48.012;7.862;2024-01-11T12:11:29;20.60;;;17.73;;
12302;SDS011;6214;48.012;7.862;2024-01-11T12:13:57;24.58;;;20.15;;
12302;SDS011;6214;48.012;7.862;2024-01-11T12:16:24;21.13;;;18.70;;
12302;SDS011;6214;48.012;7.862;2024-01-11T12:18:51;19.98;;;16.77;;
12302;SDS011;6214;48.012;7.862;2024-01-11T12:21:18;23.50;;;19.90;;
12302;SDS011;6214;48.012;7.862;2024-01-11T12:23:45;26.90;;;24.00;;
12302;SDS011;6214;48.012;7.862;2024-01-11T12:26:12;21.30;;;18.80;;
12302;SDS011;6214;48.012;7.862;2024-01-11T12:28:41;20.10;;;17.10;;
12302;SDS011;6214;48.012;7.862;2024-01-11T12:31:09;24.65;;;21.95;;
12302;SDS011;6214;48.012;7.862;2024-01-11T12:33:36;23.55;;;20.98;;
12302;SDS011;6214;48.012;7.862;2024-01-11T12:36:05;21.13;;;17.85;;
12302;SDS011;6214;48.012;7.862;2024-01-11T12:38:34;24.38;;;21.48;;
12302;SDS011;6214;48.012;7.862;2024-01-11T12:41:01;26.48;;;23.42;;
12302;SDS011;6214;48.012;7.862;2024-01-11T12:43:30;24.20;;;21.30;;
12302;SDS011;6214;48.012;7.862;2024-01-11T12:45:57;28.80;;;25.10;;
12302;SDS011;6214;48.012;7.862;2024-01-11T12:48:23;24.00;;;21.40;;
12302;SDS011;6214;48.012;7.862;2024-01-11T12:50:51;28.50;;;25.40;;
12302;SDS011;6214;48.012;7.862;2024-01-11T12:53:39;28.50;;;24.20;;
12302;SDS011;6214;48.012;7.862;2024-01-11T12:56:06;25.30;;;22.42;;
12302;SDS011;6214;48.012;7.862;2024-01-11T12:58:38;23.92;;;21.08;;
12302;SDS011;6214;48.012;7.862;2024-01-11T13:01:08;26.25;;;22.60;;
12302;SDS011;6214;48.012;7.862;2024-01-11T13:03:35;22.45;;;19.40;;
12302;SDS011;6214;48.012;7.862;2024-01-11T13:06:03;26.60;;;23.70;;
12302;SDS011;6214;48.012;7.862;2024-01-11T13:08:35;24.83;;;21.58;;
12302;SDS011;6214;48.012;7.862;2024-01-11T13:11:08;21.42;;;19.13;;
12302;SDS011;6214;48.012;7.862;2024-01-11T13:13:35;23.83;;;20.38;;
12302;SDS011;6214;48.012;7.862;2024-01-11T13:16:02;20.77;;;18.10;;
12302;SDS011;6214;48.012;7.862;2024-01-11T13:18:32;22.90;;;19.50;;
12302;SDS011;6214;48.012;7.862;2024-01-11T13:20:59;22.15;;;19.75;;
12302;SDS011;6214;48.012;7.862;2024-01-11T13:23:29;19.83;;;16.75;;
12302;SDS011;6214;48.012;7.862;2024-01-11T13:25:57;23.88;;;20.40;;
12302;SDS011;6214;48.012;7.862;2024-01-11T13:28:24;24.83;;;22.02;;
12302;SDS011;6214;48.012;7.862;2024-01-11T13:30:53;25.02;;;22.00;;
12302;SDS011;6214;48.012;7.862;2024-01-11T13:33:20;24.27;;;20.93;;
12302;SDS011;6214;48.012;7.862;2024-01-11T13:35:49;23.52;;;20.10;;
12302;SDS011;6214;48.012;7.862;2024-01-11T13:38:17;19.27;;;16.50;;
12302;SDS011;6214;48.012;7.862;2024-01-11T13:40:46;21.45;;;17.77;;
12302;SDS011;6214;48.012;7.862;2024-01-11T13:43:13;16.17;;;13.63;;
12302;SDS011;6214;48.012;7.862;2024-01-11T13:45:40;16.08;;;13.00;;
12302;SDS011;6214;48.012;7.862;2024-01-11T13:48:07;21.60;;;18.77;;
12302;SDS011;6214;48.012;7.862;2024-01-11T13:50:34;28.95;;;25.38;;
12302;SDS011;6214;48.012;7.862;2024-01-11T13:53:01;28.58;;;24.30;;
12302;SDS011;6214;48.012;7.862;2024-01-11T13:55:28;26.88;;;23.33;;
12302;SDS011;6214;48.012;7.862;2024-01-11T13:58:03;27.35;;;24.02;;
12302;SDS011;6214;48.012;7.862;2024-01-11T14:00:30;29.45;;;25.35;;
12302;SDS011;6214;48.012;7.862;2024-01-11T14:02:57;29.60;;;25.73;;
12302;SDS011;6214;48.012;7.862;2024-01-11T14:05:24;29.93;;;25.77;;
12302;SDS011;6214;48.012;7.862;2024-01-11T14:07:51;32.38;;;27.63;;
12302;SDS011;6214;48.012;7.862;2024-01-11T14:10:24;27.47;;;24.47;;
12302;SDS011;6214;48.012;7.862;2024-01-11T14:12:53;28.55;;;25.30;;
12302;SDS011;6214;48.012;7.862;2024-01-11T14:15:20;25.17;;;21.60;;
12302;SDS011;6214;48.012;7.862;2024-01-11T14:17:46;24.95;;;20.92;;
12302;SDS011;6214;48.012;7.862;2024-01-11T14:20:14;25.58;;;20.98;;
12302;SDS011;6214;48.012;7.862;2024-01-11T14:22:42;24.80;;;20.95;;
12302;SDS011;6214;48.012;7.862;2024-01-11T14:25:18;22.63;;;19.80;;
12302;SDS011;6214;48.012;7.862;2024-01-11T14:27:46;26.48;;;22.52;;
12302;SDS011;6214;48.012;7.862;2024-01-11T14:30:14;20.27;;;17.25;;
12302;SDS011;6214;48.012;7.862;2024-01-11T14:32:41;21.70;;;18.30;;
12302;SDS011;6214;48.012;7.862;2024-01-11T14:35:08;22.02;;;19.63;;
12302;SDS011;6214;48.012;7.862;2024-01-11T14:37:36;21.30;;;18.98;;
12302;SDS011;6214;48.012;7.862;2024-01-11T14:40:05;19.10;;;16.60;;
12302;SDS011;6214;48.012;7.862;2024-01-11T14:42:32;18.27;;;14.30;;
12302;SDS011;6214;48.012;7.862;2024-01-11T14:44:59;18.65;;;16.08;;